Time;durP1;ratioP1;P1;durP2;ratioP2;P2;SDS_P1;SDS_P2;PMS_P1;PMS_P2;Temp;Humidity;BMP_temperature;BMP_pressure;BME280_temperature;BME280_humidity;BME280_pressure;Samples;Min_cycle;Max_cycle;Signal;HPM_P1;HPM_P2
2021/11/26 00:02:20;;;;;;;7.32;4.45;;;;;;;;;;5136364;28;20023;-68
2021/11/26 00:04:46;;;;;;;7.75;3.80;;;;;;;;;;5138456;27;20015;-69
2021/11/26 00:07:12;;;;;;;4.03;2.53;;;;;;;;;;5142249;27;20035;-69
2021/11/26 00:09:38;;;;;;;4.00;2.17;;;;;;;;;;5141552;27;20088;-68
2021/11/26 00:12:05;;;;;;;5.97;3.50;;;;;;;;;;5141355;27;20057;-69
2021/11/26 00:14:33;;;;;;;7.63;2.72;;;;;;;;;;5141535;27;20111;-69
2021/11/26 00:17:02;;;;;;;5.32;2.53;;;;;;;;;;5141056;27;20071;-69
2021/11/26 00:19:28;;;;;;;8.23;3.35;;;;;;;;;;5141589;27;20015;-70
2021/11/26 00:21:55;;;;;;;6.22;2.58;;;;;;;;;;5141518;27;20336;-69
2021/11/26 00:24:22;;;;;;;5.80;2.97;;;;;;;;;;5141536;27;20015;-69
2021/11/26 00:26:49;;;;;;;4.50;3.08;;;;;;;;;;5139948;27;20042;-68
2021/11/26 00:29:15;;;;;;;7.40;4.13;;;;;;;;;;5141145;27;20026;-68
2021/11/26 00:31:41;;;;;;;6.55;3.13;;;;;;;;;;5140072;27;20015;-67
2021/11/26 00:34:07;;;;;;;5.70;3.17;;;;;;;;;;5141043;27;20020;-68
2021/11/26 00:36:33;;;;;;;4.38;2.88;;;;;;;;;;5139560;27;20041;-68
2021/11/26 00:39:00;;;;;;;4.15;2.13;;;;;;;;;;5122699;27;20064;-68
2021/11/26 00:41:26;;;;;;;3.97;2.30;;;;;;;;;;5140754;27;20413;-68
2021/11/26 00:43:52;;;;;;;4.15;2.78;;;;;;;;;;5139440;27;20062;-68
2021/11/26 00:46:19;;;;;;;5.18;2.65;;;;;;;;;;5140579;27;20023;-68
2021/11/26 00:48:45;;;;;;;6.10;2.75;;;;;;;;;;5139434;27;20023;-69
2021/11/26 00:51:11;;;;;;;4.78;2.80;;;;;;;;;;5139460;27;20337;-67
2021/11/26 00:53:37;;;;;;;4.63;2.45;;;;;;;;;;5139266;27;20019;-68
2021/11/26 00:56:03;;;;;;;5.13;2.53;;;;;;;;;;5140345;27;20042;-69
2021/11/26 00:58:29;;;;;;;8.38;3.20;;;;;;;;;;5140374;27;20023;-69
2021/11/26 01:00:55;;;;;;;5.60;2.15;;;;;;;;;;5139652;27;20327;-70
2021/11/26 01:03:22;;;;;;;4.55;2.50;;;;;;;;;;5139116;27;20019;-71
2021/11/26 01:05:49;;;;;;;6.30;2.60;;;;;;;;;;5139827;27;20021;-71
2021/11/26 01:08:15;;;;;;;4.43;2.33;;;;;;;;;;5139504;27;20439;-70
2021/11/26 01:10:42;;;;;;;3.15;1.95;;;;;;;;;;5139872;27;20019;-72
2021/11/26 01:13:08;;;;;;;6.05;3.13;;;;;;;;;;5121418;27;20015;-72
2021/11/26 01:15:36;;;;;;;4.15;2.08;;;;;;;;;;5139723;27;20019;-73
2021/11/26 01:18:03;;;;;;;6.65;3.55;;;;;;;;;;5137782;27;20142;-71
2021/11/26 01:20:31;;;;;;;3.78;2.08;;;;;;;;;;5139220;27;20041;-71
2021/11/26 01:22:57;;;;;;;4.85;2.35;;;;;;;;;;5139234;27;20015;-74
2021/11/26 01:25:24;;;;;;;4.72;2.88;;;;;;;;;;5139315;27;20076;-71
2021/11/26 01:27:50;;;;;;;4.03;1.92;;;;;;;;;;5137144;27;20429;-71
2021/11/26 01:30:26;;;;;;;5.60;2.40;;;;;;;;;;5139104;27;20041;-71
2021/11/26 01:32:52;;;;;;;6.50;2.58;;;;;;;;;;5137817;27;20363;-71
2021/11/26 01:35:19;;;;;;;5.10;2.97;;;;;;;;;;5137957;27;20432;-71
2021/11/26 01:37:45;;;;;;;7.75;3.88;;;;;;;;;;5137829;27;20091;-72
2021/11/26 01:40:12;;;;;;;5.68;2.50;;;;;;;;;;5137792;27;20429;-71
2021/11/26 01:42:38;;;;;;;5.55;2.63;;;;;;;;;;5137415;27;20069;-72
2021/11/26 01:45:04;;;;;;;5.55;3.83;;;;;;;;;;5138146;27;20046;-71
2021/11/26 01:47:30;;;;;;;5.72;3.35;;;;;;;;;;5139274;27;20145;-72
2021/11/26 01:49:56;;;;;;;4.63;2.60;;;;;;;;;;5137958;27;20106;-72
2021/11/26 01:52:22;;;;;;;3.60;2.22;;;;;;;;;;5137562;27;20019;-71
2021/11/26 01:54:49;;;;;;;5.18;3.58;;;;;;;;;;5119830;27;20019;-71
2021/11/26 01:57:19;;;;;;;5.55;2.92;;;;;;;;;;5138119;27;20031;-71
2021/11/26 01:59:47;;;;;;;4.80;3.13;;;;;;;;;;5137545;27;20011;-72
2021/11/26 02:02:13;;;;;;;4.38;2.95;;;;;;;;;;5137670;27;20019;-71
2021/11/26 02:04:39;;;;;;;6.75;4.38;;;;;;;;;;5136990;27;20023;-72
2021/11/26 02:07:05;;;;;;;7.20;3.35;;;;;;;;;;5138301;27;20296;-71
2021/11/26 02:09:31;;;;;;;6.10;3.25;;;;;;;;;;5137346;27;20046;-72
2021/11/26 02:11:57;;;;;;;6.30;3.58;;;;;;;;;;5137999;27;20030;-72
2021/11/26 02:14:24;;;;;;;11.23;5.50;;;;;;;;;;5136339;27;20019;-71
2021/11/26 02:16:50;;;;;;;10.02;4.00;;;;;;;;;;5137226;27;20440;-71
2021/11/26 02:19:16;;;;;;;9.63;4.88;;;;;;;;;;5137402;27;20045;-72
2021/11/26 02:21:42;;;;;;;10.68;5.15;;;;;;;;;;5120001;27;20026;-71
2021/11/26 02:24:09;;;;;;;10.25;6.22;;;;;;;;;;5137550;27;20030;-72
2021/11/26 02:26:36;;;;;;;13.50;6.55;;;;;;;;;;5135609;27;20015;-71
2021/11/26 02:29:02;;;;;;;12.43;6.32;;;;;;;;;;5136645;27;20023;-71
2021/11/26 02:31:28;;;;;;;5.85;3.50;;;;;;;;;;5137892;27;20015;-71
2021/11/26 02:33:54;;;;;;;6.43;3.80;;;;;;;;;;5137208;27;20027;-71
2021/11/26 02:36:20;;;;;;;3.55;2.60;;;;;;;;;;5137725;27;20046;-70
2021/11/26 02:38:46;;;;;;;5.43;3.42;;;;;;;;;;5137666;27;20022;-70
2021/11/26 02:41:12;;;;;;;5.03;3.22;;;;;;;;;;5137136;27;20026;-70
2021/11/26 02:43:38;;;;;;;6.43;3.13;;;;;;;;;;5137071;27;20023;-71
2021/11/26 02:46:04;;;;;;;8.55;4.18;;;;;;;;;;5135613;27;20053;-72
2021/11/26 02:48:31;;;;;;;7.97;4.60;;;;;;;;;;5136033;27;20297;-71
2021/11/26 02:50:57;;;;;;;5.85;2.88;;;;;;;;;;5134791;27;20039;-72
2021/11/26 02:53:23;;;;;;;7.72;3.05;;;;;;;;;;5131818;27;20106;-73
2021/11/26 02:55:49;;;;;;;8.40;3.65;;;;;;;;;;5133487;27;20023;-72
2021/11/26 02:58:15;;;;;;;6.05;2.75;;;;;;;;;;5133324;27;20061;-69
2021/11/26 03:00:46;;;;;;;5.88;3.05;;;;;;;;;;5137953;27;20020;-73
2021/11/26 03:03:14;;;;;;;10.32;3.45;;;;;;;;;;5136002;28;20011;-71
2021/11/26 03:05:41;;;;;;;6.75;3.45;;;;;;;;;;5136826;28;20435;-71
2021/11/26 03:08:08;;;;;;;4.57;2.42;;;;;;;;;;5137875;28;20109;-71
2021/11/26 03:10:35;;;;;;;5.00;3.10;;;;;;;;;;5136995;28;20019;-71
2021/11/26 03:13:09;;;;;;;6.15;3.17;;;;;;;;;;5120156;28;20019;-71
2021/11/26 03:15:37;;;;;;;6.55;2.72;;;;;;;;;;5117442;28;20027;-71
2021/11/26 03:18:13;;;;;;;4.32;2.65;;;;;;;;;;5136073;27;20034;-72
2021/11/26 03:20:39;;;;;;;7.45;3.53;;;;;;;;;;5087428;28;20038;-70
2021/11/26 03:23:05;;;;;;;10.30;5.05;;;;;;;;;;5136428;27;20023;-71
2021/11/26 03:25:31;;;;;;;8.00;3.38;;;;;;;;;;5134465;27;20309;-72
2021/11/26 03:27:57;;;;;;;6.82;4.00;;;;;;;;;;5132543;28;20046;-72
2021/11/26 03:30:28;;;;;;;6.70;3.70;;;;;;;;;;5133486;28;20058;-72
2021/11/26 03:33:04;;;;;;;;;;;;;;;;;;5118320;28;20369;-73
2021/11/26 03:35:36;;;;;;;5.90;3.33;;;;;;;;;;5116752;28;19960;-74
2021/11/26 03:38:13;;;;;;;6.72;3.80;;;;;;;;;;5100251;28;20047;-72
2021/11/26 03:40:46;;;;;;;6.45;2.97;;;;;;;;;;5120042;27;20026;-73
2021/11/26 03:43:19;;;;;;;7.45;3.35;;;;;;;;;;5120205;27;20015;-74
2021/11/26 03:45:48;;;;;;;7.35;4.38;;;;;;;;;;5135198;22;20051;-74
2021/11/26 03:48:30;;;;;;;7.28;4.57;;;;;;;;;;5081343;28;20422;-72
2021/11/26 03:51:06;;;;;;;10.32;5.07;;;;;;;;;;5096260;28;20031;-74
2021/11/26 03:53:52;;;;;;;6.82;3.50;;;;;;;;;;5080533;28;20028;-73
2021/11/26 03:56:24;;;;;;;9.55;4.63;;;;;;;;;;5081162;28;20062;-74
2021/11/26 03:58:53;;;;;;;6.00;3.95;;;;;;;;;;5080924;28;20031;-74
2021/11/26 04:01:46;;;;;;;9.25;3.55;;;;;;;;;;5069027;28;20020;-73
2021/11/26 04:04:19;;;;;;;8.82;4.72;;;;;;;;;;5079644;28;20021;-73
2021/11/26 04:06:58;;;;;;;9.57;5.03;;;;;;;;;;5096945;28;20093;-74
2021/11/26 04:09:29;;;;;;;7.30;4.32;;;;;;;;;;5079629;28;20012;-74
2021/11/26 04:11:56;;;;;;;6.20;3.92;;;;;;;;;;5095988;28;20038;-75
2021/11/26 04:14:22;;;;;;;5.55;3.03;;;;;;;;;;5098212;28;20016;-74
2021/11/26 04:16:49;;;;;;;7.55;4.40;;;;;;;;;;5096144;28;20142;-75
2021/11/26 04:19:16;;;;;;;6.00;3.63;;;;;;;;;;5078404;28;20070;-76
2021/11/26 04:21:46;;;;;;;7.20;3.80;;;;;;;;;;5095882;28;20054;-75
2021/11/26 04:24:16;;;;;;;8.27;3.25;;;;;;;;;;5077345;28;20036;-75
2021/11/26 04:26:46;;;;;;;5.47;2.85;;;;;;;;;;5077412;28;20124;-74
2021/11/26 04:29:13;;;;;;;5.20;3.15;;;;;;;;;;5077042;28;20077;-75
2021/11/26 04:31:47;;;;;;;;;;;;;;;;;;5095282;28;20464;-73
2021/11/26 04:34:14;;;;;;;;;;;;;;;;;;5106357;22;19989;-74
2021/11/26 04:36:40;;;;;;;;;;;;;;;;;;5099003;28;19923;-72
2021/11/26 04:39:07;;;;;;;;;;;;;;;;;;5099194;28;20005;-72
2021/11/26 04:41:34;;;;;;;;;;;;;;;;;;5099606;28;19961;-72
2021/11/26 04:44:01;;;;;;;;;;;;;;;;;;5100876;28;19961;-72
2021/11/26 04:46:29;;;;;;;;;;;;;;;;;;5098948;28;19934;-74
2021/11/26 04:48:55;;;;;;;;;;;;;;;;;;5115871;28;19904;-73
2021/11/26 04:51:21;;;;;;;;;;;;;;;;;;5122169;28;20411;-73
2021/11/26 04:53:50;;;;;;;;;;;;;;;;;;5126432;28;19923;-75
2021/11/26 04:56:16;;;;;;;;;;;;;;;;;;5111286;28;19985;-73
2021/11/26 04:58:47;;;;;;;;;;;;;;;;;;5108699;28;19991;-74
2021/11/26 05:01:44;;;;;;;;;;;;;;;;;;5144352;22;20215;-75
2021/11/26 05:04:15;;;;;;;;;;;;;;;;;;5059017;28;20223;-74
2021/11/26 05:06:47;;;;;;;;;;;;;;;;;;5078444;22;20003;-75
2021/11/26 05:09:16;;;;;;;;;;;;;;;;;;5100463;28;20406;-76
2021/11/26 05:11:50;;;;;;;;;;;;;;;;;;5099260;28;19934;-75
2021/11/26 05:14:20;;;;;;;;;;;;;;;;;;5100143;28;19934;-76
2021/11/26 05:16:49;;;;;;;;;;;;;;;;;;5098610;28;19922;-76
2021/11/26 05:19:16;;;;;;;;;;;;;;;;;;5116418;28;19988;-77
2021/11/26 05:21:46;;;;;;;;;;;;;;;;;;5117135;28;19910;-77
2021/11/26 05:24:15;;;;;;;;;;;;;;;;;;5100624;28;19911;-77
2021/11/26 05:26:50;;;;;;;;;;;;;;;;;;5118565;28;20026;-77
2021/11/26 05:29:27;;;;;;;;;;;;;;;;;;5100466;28;19990;-76
2021/11/26 05:31:55;;;;;;;;;;;;;;;;;;5100774;28;19972;-76
2021/11/26 05:34:22;;;;;;;;;;;;;;;;;;5128845;22;19950;-76
2021/11/26 05:36:59;;;;;;;;;;;;;;;;;;5096837;28;19958;-75
2021/11/26 05:39:28;;;;;;;;;;;;;;;;;;5096244;28;19904;-76
2021/11/26 05:42:02;;;;;;;;;;;;;;;;;;5096663;28;19948;-75
2021/11/26 05:44:28;;;;;;;;;;;;;;;;;;5078897;28;20157;-77
2021/11/26 05:46:58;;;;;;;;;;;;;;;;;;5078410;28;19938;-74
2021/11/26 05:49:26;;;;;;;;;;;;;;;;;;5103416;22;19911;-76
2021/11/26 05:51:51;;;;;;;;;;;;;;;;;;5114106;28;20220;-74
2021/11/26 05:54:17;;;;;;;;;;;;;;;;;;5116631;28;19918;-73
2021/11/26 05:59:12;;;;;;;;;;;;;;;;;;5173686;22;19951;-73
2021/11/26 06:01:40;;;;;;;;;;;;;;;;;;5096758;28;19904;-73
2021/11/26 06:04:10;;;;;;;;;;;;;;;;;;5097070;28;19904;-73
2021/11/26 06:06:36;;;;;;;;;;;;;;;;;;5116214;28;19990;-73
2021/11/26 06:09:02;;;;;;;;;;;;;;;;;;5115434;28;19990;-73
2021/11/26 06:11:32;;;;;;;;;;;;;;;;;;5096706;28;19934;-72
2021/11/26 06:13:59;;;;;;;;;;;;;;;;;;5113978;28;19903;-73
2021/11/26 06:16:25;;;;;;;;;;;;;;;;;;5114684;28;19947;-73
2021/11/26 06:18:51;;;;;;;;;;;;;;;;;;5096875;28;19934;-71
2021/11/26 06:21:18;;;;;;;;;;;;;;;;;;5114460;28;19961;-73
2021/11/26 06:23:44;;;;;;;;;;;;;;;;;;5115009;28;20282;-72
2021/11/26 06:26:11;;;;;;;;;;;;;;;;;;5112685;28;19918;-73
2021/11/26 06:28:42;;;;;;;;;;;;;;;;;;5114747;28;20278;-73
2021/11/26 06:31:08;;;;;;;;;;;;;;;;;;5113985;28;19954;-73
2021/11/26 06:33:33;;;;;;;;;;;;;;;;;;5097554;28;19925;-73
2021/11/26 06:35:59;;;;;;;;;;;;;;;;;;5114046;28;19918;-73
2021/11/26 06:38:25;;;;;;;;;;;;;;;;;;5113931;28;20321;-73
2021/11/26 06:40:51;;;;;;;;;;;;;;;;;;5097542;28;20336;-73
2021/11/26 06:43:17;;;;;;;;;;;;;;;;;;5097442;28;19964;-73
2021/11/26 06:45:45;;;;;;;;;;;;;;;;;;5114057;28;19915;-72
2021/11/26 06:48:12;;;;;;;;;;;;;;;;;;5096542;28;19936;-73
2021/11/26 06:50:39;;;;;;;;;;;;;;;;;;5097127;28;19942;-72
2021/11/26 06:53:05;;;;;;;;;;;;;;;;;;5098134;28;19934;-73
2021/11/26 06:55:31;;;;;;;;;;;;;;;;;;5114662;28;19916;-72
2021/11/26 06:57:57;;;;;;;;;;;;;;;;;;5096853;28;19981;-72
2021/11/26 07:00:23;;;;;;;;;;;;;;;;;;5111251;28;20158;-73
2021/11/26 07:02:49;;;;;;;;;;;;;;;;;;5094105;28;19995;-73
2021/11/26 07:05:16;;;;;;;;;;;;;;;;;;5114552;28;20316;-73
2021/11/26 07:07:46;;;;;;;;;;;;;;;;;;5097706;28;20309;-74
2021/11/26 07:10:36;;;;;;;;;;;;;;;;;;5097845;28;19914;-73
2021/11/26 07:13:12;;;;;;;;;;;;;;;;;;5115882;28;20002;-73
2021/11/26 07:16:04;;;;;;;;;;;;;;;;;;5118683;28;19984;-73
2021/11/26 07:18:40;;;;;;;;;;;;;;;;;;5103167;28;19989;-73
2021/11/26 07:21:11;;;;;;;;;;;;;;;;;;5118732;28;19965;-74
2021/11/26 07:23:42;;;;;;;;;;;;;;;;;;5102468;28;20215;-73
2021/11/26 07:26:16;;;;;;;;;;;;;;;;;;5113695;28;19934;-72
2021/11/26 07:28:47;;;;;;;;;;;;;;;;;;5101786;28;20081;-73
2021/11/26 07:33:56;;;;;;;;;;;;;;;;;;5096784;22;19955;-72
2021/11/26 07:36:46;;;;;;;;;;;;;;;;;;5079386;28;19949;-72
2021/11/26 07:39:13;;;;;;;;;;;;;;;;;;5080112;28;19904;-73
2021/11/26 07:41:42;;;;;;;;;;;;;;;;;;5098512;28;19978;-72
2021/11/26 07:44:12;;;;;;;;;;;;;;;;;;5065007;28;19970;-73
2021/11/26 07:46:39;;;;;;;;;;;;;;;;;;5081149;28;20237;-72
2021/11/26 07:49:07;;;;;;;;;;;;;;;;;;5099220;28;20381;-71
2021/11/26 07:51:40;;;;;;;;;;;;;;;;;;5066378;28;19904;-72
2021/11/26 07:54:33;;;;;;;;;;;;;;;;;;5067740;28;19941;-72
2021/11/26 07:57:01;;;;;;;;;;;;;;;;;;5081996;28;19946;-72
2021/11/26 07:59:37;;;;;;;;;;;;;;;;;;5064997;28;19918;-72
2021/11/26 08:02:10;;;;;;;;;;;;;;;;;;5065713;28;19935;-73
2021/11/26 08:04:47;;;;;;;;;;;;;;;;;;5081161;28;19904;-73
2021/11/26 08:07:24;;;;;;;;;;;;;;;;;;5065498;28;19907;-72
2021/11/26 08:10:26;;;;;;;;;;;;;;;;;;5068396;28;19904;-72
2021/11/26 08:13:24;;;;;;;;;;;;;;;;;;5067712;28;20188;-72
2021/11/26 08:16:13;;;;;;;;;;;;;;;;;;5067644;28;19946;-72
2021/11/26 08:18:39;;;;;;;;;;;;;;;;;;5064305;28;20405;-72
2021/11/26 08:21:06;;;;;;;;;;;;;;;;;;5064674;28;20302;-73
2021/11/26 08:23:33;;;;;;;;;;;;;;;;;;5137772;22;20041;-73
2021/11/26 08:26:02;;;;;;;;;;;;;;;;;;5209855;22;19993;-72
2021/11/26 08:28:28;;;;;;;;;;;;;;;;;;5080809;28;19914;-72
2021/11/26 08:30:58;;;;;;;;;;;;;;;;;;5099329;28;19921;-72
2021/11/26 08:33:25;;;;;;;;;;;;;;;;;;5098838;28;19970;-72
2021/11/26 08:35:51;;;;;;;;;;;;;;;;;;5064297;28;20251;-72
2021/11/26 08:38:18;;;;;;;;;;;;;;;;;;5090043;22;19912;-72
2021/11/26 08:40:45;;;;;;;;;;;;;;;;;;5101896;28;19956;-72
2021/11/26 08:43:12;;;;;;;;;;;;;;;;;;5084209;28;19934;-72
2021/11/26 08:45:39;;;;;;;;;;;;;;;;;;5084965;28;20002;-72
2021/11/26 08:48:05;;;;;;;;;;;;;;;;;;5101633;28;19904;-72
2021/11/26 08:50:34;;;;;;;;;;;;;;;;;;5119545;28;20316;-72
2021/11/26 08:53:01;;;;;;;;;;;;;;;;;;5100729;28;19940;-73
2021/11/26 08:55:27;;;;;;;;;;;;;;;;;;5101021;28;19946;-73
2021/11/26 08:57:58;;;;;;;;;;;;;;;;;;5100284;28;19962;-73
2021/11/26 09:00:26;;;;;;;;;;;;;;;;;;5139596;22;19919;-73
2021/11/26 09:02:55;;;;;;;;;;;;;;;;;;5138620;27;19903;-73
2021/11/26 09:05:21;;;;;;;;;;;;;;;;;;5137513;27;19920;-72
2021/11/26 09:07:47;;;;;;;;;;;;;;;;;;5133120;22;19950;-72
2021/11/26 09:10:13;;;;;;;;;;;;;;;;;;5078002;28;20288;-72
2021/11/26 09:12:42;;;;;;;;;;;;;;;;;;5077408;28;19966;-72
2021/11/26 09:15:08;;;;;;;;;;;;;;;;;;5078098;28;19930;-72
2021/11/26 09:17:33;;;;;;;;;;;;;;;;;;5076458;28;19991;-71
2021/11/26 09:19:59;;;;;;;;;;;;;;;;;;5078279;28;19908;-72
2021/11/26 09:22:25;;;;;;;;;;;;;;;;;;5076162;28;19904;-72
2021/11/26 09:24:51;;;;;;;;;;;;;;;;;;5059570;28;19926;-72
2021/11/26 09:27:17;;;;;;;;;;;;;;;;;;5079913;22;20237;-72
2021/11/26 09:29:46;;;;;;;;;;;;;;;;;;5057108;28;19916;-72
2021/11/26 09:32:11;;;;;;;;;;;;;;;;;;5055924;28;20298;-72
2021/11/26 09:34:40;;;;;;;;;;;;;;;;;;5040288;28;19995;-72
2021/11/26 09:37:06;;;;;;;;;;;;;;;;;;5056483;28;19942;-72
2021/11/26 09:39:32;;;;;;;;;;;;;;;;;;5058108;28;20382;-72
2021/11/26 09:41:57;;;;;;;;;;;;;;;;;;5057327;28;19962;-72
2021/11/26 09:44:23;;;;;;;;;;;;;;;;;;5040381;28;19954;-72
2021/11/26 09:46:54;;;;;;;;;;;;;;;;;;5056934;28;20301;-73
2021/11/26 09:49:20;;;;;;;;;;;;;;;;;;5040593;28;19966;-72
2021/11/26 09:51:46;;;;;;;;;;;;;;;;;;5058318;28;19939;-72
2021/11/26 09:54:11;;;;;;;;;;;;;;;;;;5101316;22;19959;-73
2021/11/26 09:56:37;;;;;;;;;;;;;;;;;;5097355;28;20344;-73
2021/11/26 09:59:05;;;;;;;;;;;;;;;;;;5098081;28;19904;-73
2021/11/26 10:01:31;;;;;;;;;;;;;;;;;;5097345;28;19925;-73
2021/11/26 10:03:59;;;;;;;;;;;;;;;;;;5080613;28;20304;-73
2021/11/26 10:06:25;;;;;;;;;;;;;;;;;;5096965;28;19966;-73
2021/11/26 10:08:51;;;;;;;;;;;;;;;;;;5097460;28;19973;-73
2021/11/26 10:11:17;;;;;;;;;;;;;;;;;;5081050;28;19916;-73
2021/11/26 10:13:44;;;;;;;;;;;;;;;;;;5081403;28;19950;-73
2021/11/26 10:16:10;;;;;;;;;;;;;;;;;;5106216;22;19912;-72
2021/11/26 10:18:36;;;;;;;;;;;;;;;;;;5094567;28;19920;-73
2021/11/26 10:21:03;;;;;;;;;;;;;;;;;;5098180;28;19915;-73
2021/11/26 10:23:28;;;;;;;;;;;;;;;;;;5080269;28;19928;-72
2021/11/26 10:25:54;;;;;;;;;;;;;;;;;;5079904;28;19919;-73
2021/11/26 10:28:21;;;;;;;;;;;;;;;;;;5097632;28;19908;-73
2021/11/26 10:30:47;;;;;;;;;;;;;;;;;;5080744;28;19926;-73
2021/11/26 10:33:13;;;;;;;;;;;;;;;;;;5097218;28;20313;-73
2021/11/26 10:35:39;;;;;;;;;;;;;;;;;;5097527;28;19915;-73
2021/11/26 10:38:05;;;;;;;;;;;;;;;;;;5080317;28;19955;-73
2021/11/26 10:40:32;;;;;;;;;;;;;;;;;;5096333;22;20007;-72
2021/11/26 10:42:58;;;;;;;;;;;;;;;;;;5117517;28;20224;-73
2021/11/26 10:45:24;;;;;;;;;;;;;;;;;;5117876;28;19921;-73
2021/11/26 10:48:15;;;;;;;;;;;;;;;;;;5117600;28;19931;-73
2021/11/26 10:50:54;;;;;;;;;;;;;;;;;;5100246;28;19925;-73
2021/11/26 10:58:49;;;;;;;;;;;;;;;;;;5118501;28;19922;-73
2021/11/26 11:01:15;;;;;;;;;;;;;;;;;;5099901;28;19934;-73
2021/11/26 11:03:42;;;;;;;;;;;;;;;;;;5082599;28;20238;-73
2021/11/26 11:06:11;;;;;;;;;;;;;;;;;;5118086;28;19903;-73
2021/11/26 11:08:41;;;;;;;;;;;;;;;;;;5101168;28;20385;-73
2021/11/26 11:11:08;;;;;;;;;;;;;;;;;;5082900;28;19904;-73
2021/11/26 11:13:34;;;;;;;;;;;;;;;;;;5118593;28;19965;-73
2021/11/26 11:16:00;;;;;;;;;;;;;;;;;;5118826;28;19910;-73
2021/11/26 11:18:25;;;;;;;;;;;;;;;;;;5099475;28;19919;-73
2021/11/26 11:20:52;;;;;;;;;;;;;;;;;;5095444;22;19927;-73
2021/11/26 11:23:20;;;;;;;;;;;;;;;;;;5097993;28;19917;-73
2021/11/26 11:25:46;;;;;;;;;;;;;;;;;;5098498;28;19943;-73
2021/11/26 11:28:12;;;;;;;;;;;;;;;;;;5097456;28;19930;-73
2021/11/26 11:30:37;;;;;;;;;;;;;;;;;;5079692;28;19941;-73
2021/11/26 11:33:03;;;;;;;;;;;;;;;;;;5078710;28;19970;-73
2021/11/26 11:35:29;;;;;;;;;;;;;;;;;;5078957;28;19922;-73
2021/11/26 11:37:55;;;;;;;;;;;;;;;;;;5062847;28;19912;-72
2021/11/26 11:40:21;;;;;;;;;;;;;;;;;;5096782;28;19917;-73
2021/11/26 11:42:46;;;;;;;;;;;;;;;;;;5097432;28;19915;-73
2021/11/26 11:45:12;;;;;;;;;;;;;;;;;;5097319;28;19975;-73
2021/11/26 11:47:38;;;;;;;;;;;;;;;;;;5097422;28;19904;-73
2021/11/26 11:50:04;;;;;;;;;;;;;;;;;;5063258;28;19904;-73
2021/11/26 11:52:30;;;;;;;;;;;;;;;;;;5080198;28;20365;-73
2021/11/26 11:54:56;;;;;;;;;;;;;;;;;;5062383;28;19934;-73
2021/11/26 11:57:21;;;;;;;;;;;;;;;;;;5062795;28;19919;-73
2021/11/26 11:59:49;;;;;;;;;;;;;;;;;;5079489;28;20375;-73
2021/11/26 12:02:15;;;;;;;;;;;;;;;;;;5082437;28;20173;-73
2021/11/26 12:04:41;;;;;;;;;;;;;;;;;;5066467;28;19919;-72
2021/11/26 12:07:07;;;;;;;;;;;;;;;;;;5071349;22;21270;-72
2021/11/26 12:09:33;;;;;;;;;;;;;;;;;;5101245;28;19912;-72
2021/11/26 12:11:58;;;;;;;;;;;;;;;;;;5100652;28;19919;-72
2021/11/26 12:14:24;;;;;;;;;;;;;;;;;;5082506;28;20284;-72
2021/11/26 12:16:50;;;;;;;;;;;;;;;;;;5092503;22;19969;-73
2021/11/26 12:19:16;;;;;;;;;;;;;;;;;;5141204;27;19930;-72
2021/11/26 12:21:42;;;;;;;;;;;;;;;;;;5141355;27;19954;-72
2021/11/26 12:24:14;;;;;;;;;;;;;;;;;;5141738;27;19916;-73
2021/11/26 12:26:44;;;;;;;;;;;;;;;;;;5123537;27;20309;-72
2021/11/26 12:29:11;;;;;;;;;;;;;;;;;;5140105;27;19904;-73
2021/11/26 12:31:37;;;;;;;;;;;;;;;;;;5123270;27;19921;-72
2021/11/26 12:34:03;;;;;;;;;;;;;;;;;;5141253;27;19929;-73
2021/11/26 12:36:29;;;;;;;;;;;;;;;;;;5123713;27;19980;-72
2021/11/26 12:38:55;;;;;;;;;;;;;;;;;;5122946;27;20220;-73
2021/11/26 12:41:20;;;;;;;;;;;;;;;;;;5140216;27;20025;-73
2021/11/26 12:43:47;;;;;;;;;;;;;;;;;;5140946;27;20208;-73
2021/11/26 12:46:12;;;;;;;;;;;;;;;;;;5138837;27;19911;-73
2021/11/26 12:48:54;;;;;;;;;;;;;;;;;;5123307;27;19948;-73
2021/11/26 12:51:20;;;;;;;;;;;;;;;;;;5141155;27;19957;-73
2021/11/26 12:53:46;;;;;;;;;;;;;;;;;;5123248;27;20247;-73
2021/11/26 12:56:13;;;;;;;;;;;;;;;;;;5139688;27;19903;-72
2021/11/26 12:58:39;;;;;;;;;;;;;;;;;;5139930;27;19946;-72
2021/11/26 13:01:05;;;;;;;;;;;;;;;;;;5123048;27;20304;-72
2021/11/26 13:03:33;;;;;;;;;;;;;;;;;;5122576;27;19964;-73
2021/11/26 13:06:00;;;;;;;;;;;;;;;;;;5122389;27;19926;-72
2021/11/26 13:08:26;;;;;;;;;;;;;;;;;;5139156;27;19907;-72
2021/11/26 13:10:51;;;;;;;;;;;;;;;;;;5140526;27;19930;-73
2021/11/26 13:13:17;;;;;;;;;;;;;;;;;;5139779;27;19956;-73
2021/11/26 13:15:43;;;;;;;;;;;;;;;;;;5139378;27;20354;-73
2021/11/26 13:18:09;;;;;;;;;;;;;;;;;;5140518;27;20021;-72
2021/11/26 13:20:35;;;;;;;;;;;;;;;;;;5121867;27;19938;-73
2021/11/26 13:23:00;;;;;;;;;;;;;;;;;;5140673;27;19903;-72
2021/11/26 13:25:26;;;;;;;;;;;;;;;;;;5139180;27;20028;-73
2021/11/26 13:27:52;;;;;;;;;;;;;;;;;;5121946;27;20028;-73
2021/11/26 13:30:17;;;;;;;;;;;;;;;;;;5139264;27;19997;-73
2021/11/26 13:32:44;;;;;;;;;;;;;;;;;;5122049;27;20348;-72
2021/11/26 13:35:09;;;;;;;;;;;;;;;;;;5138801;27;20216;-72
2021/11/26 13:37:35;;;;;;;;;;;;;;;;;;5122074;27;19946;-72
2021/11/26 13:40:01;;;;;;;;;;;;;;;;;;5121694;27;19910;-73
2021/11/26 13:42:27;;;;;;;;;;;;;;;;;;5138479;27;20286;-72
2021/11/26 13:44:53;;;;;;;;;;;;;;;;;;5140354;27;19945;-73
2021/11/26 13:47:19;;;;;;;;;;;;;;;;;;5121725;27;19925;-73
2021/11/26 13:49:44;;;;;;;;;;;;;;;;;;5139356;27;19911;-73
2021/11/26 13:52:10;;;;;;;;;;;;;;;;;;5121520;27;19925;-72
2021/11/26 13:54:36;;;;;;;;;;;;;;;;;;5139207;27;19907;-73
2021/11/26 13:57:02;;;;;;;;;;;;;;;;;;5121092;27;19983;-73
2021/11/26 13:59:28;;;;;;;;;;;;;;;;;;5138607;27;19911;-72
2021/11/26 14:01:53;;;;;;;;;;;;;;;;;;5138148;27;19929;-72
2021/11/26 14:04:19;;;;;;;;;;;;;;;;;;5138508;27;20280;-73
2021/11/26 14:06:45;;;;;;;;;;;;;;;;;;5121071;27;19988;-73
2021/11/26 14:09:11;;;;;;;;;;;;;;;;;;5139255;27;19994;-73
2021/11/26 14:11:37;;;;;;;;;;;;;;;;;;5138457;27;20211;-73
2021/11/26 14:14:03;;;;;;;;;;;;;;;;;;5139597;27;19940;-73
2021/11/26 14:16:28;;;;;;;;;;;;;;;;;;5138560;27;20265;-72
2021/11/26 14:18:54;;;;;;;;;;;;;;;;;;5138964;27;19956;-74
2021/11/26 14:21:20;;;;;;;;;;;;;;;;;;5138287;27;19933;-72
2021/11/26 14:23:46;;;;;;;;;;;;;;;;;;5138532;27;20236;-72
2021/11/26 14:26:11;;;;;;;;;;;;;;;;;;5122588;27;19903;-73
2021/11/26 14:28:39;;;;;;;;;;;;;;;;;;5139713;27;19953;-73
2021/11/26 14:31:05;;;;;;;;;;;;;;;;;;5138319;27;19907;-73
2021/11/26 14:33:32;;;;;;;;;;;;;;;;;;5137476;27;20233;-73
2021/11/26 14:35:59;;;;;;;;;;;;;;;;;;5140050;27;20215;-73
2021/11/26 14:38:25;;;;;;;;;;;;;;;;;;5123123;27;19949;-73
2021/11/26 14:40:52;;;;;;;;;;;;;;;;;;5122646;27;19911;-73
2021/11/26 14:43:18;;;;;;;;;;;;;;;;;;5121775;27;19940;-73
2021/11/26 14:45:50;;;;;;;;;;;;;;;;;;5123665;27;20208;-73
2021/11/26 14:48:16;;;;;;;;;;;;;;;;;;5123361;27;19935;-74
2021/11/26 14:50:49;;;;;;;;;;;;;;;;;;5126060;27;20308;-73
2021/11/26 14:53:37;;;;;;;;;;;;;;;;;;5136582;27;19924;-73
2021/11/26 14:56:03;;;;;;;;;;;;;;;;;;5141116;27;19964;-73
2021/11/26 14:58:32;;;;;;;;;;;;;;;;;;5140369;27;20260;-71
2021/11/26 15:00:58;;;;;;;;;;;;;;;;;;5141788;27;19929;-73
2021/11/26 15:03:25;;;;;;;;;;;;;;;;;;5123161;28;20322;-73
2021/11/26 15:05:51;;;;;;;;;;;;;;;;;;5141299;28;19916;-73
2021/11/26 15:08:17;;;;;;;;;;;;;;;;;;5140535;28;19903;-73
2021/11/26 15:10:44;;;;;;;;;;;;;;;;;;5140868;28;19903;-73
2021/11/26 15:13:10;;;;;;;;;;;;;;;;;;5141423;28;19921;-73
2021/11/26 15:15:37;;;;;;;;;;;;;;;;;;5125381;28;19933;-73
2021/11/26 15:18:03;;;;;;;;;;;;;;;;;;5143568;28;19950;-73
2021/11/26 15:20:29;;;;;;;;;;;;;;;;;;5143085;28;20216;-73
2021/11/26 15:22:55;;;;;;;;;;;;;;;;;;5142585;28;20445;-73
2021/11/26 15:25:23;;;;;;;;;;;;;;;;;;5143415;28;19903;-73
2021/11/26 15:27:50;;;;;;;;;;;;;;;;;;5124844;28;19904;-73
2021/11/26 15:30:16;;;;;;;;;;;;;;;;;;5141762;28;19918;-73
2021/11/26 15:32:43;;;;;;;;;;;;;;;;;;5140626;28;19978;-73
2021/11/26 15:35:10;;;;;;;;;;;;;;;;;;5146267;27;19914;-73
2021/11/26 15:37:36;;;;;;;;;;;;;;;;;;5127293;27;19911;-73
2021/11/26 15:40:03;;;;;;;;;;;;;;;;;;5142315;27;19907;-73
2021/11/26 15:42:29;;;;;;;;;;;;;;;;;;5126101;27;19940;-73
2021/11/26 15:44:56;;;;;;;;;;;;;;;;;;5143354;27;19923;-74
2021/11/26 15:47:23;;;;;;;;;;;;;;;;;;5125148;27;19944;-73
2021/11/26 15:49:51;;;;;;;;;;;;;;;;;;5142775;27;19950;-73
2021/11/26 15:52:17;;;;;;;;;;;;;;;;;;5144040;27;19938;-73
2021/11/26 15:54:46;;;;;;;;;;;;;;;;;;5143287;27;19903;-73
2021/11/26 15:57:12;;;;;;;;;;;;;;;;;;5126789;27;20250;-73
2021/11/26 15:59:39;;;;;;;;;;;;;;;;;;5123194;27;19904;-73
2021/11/26 16:02:07;;;;;;;;;;;;;;;;;;5141455;27;19914;-73
2021/11/26 16:04:33;;;;;;;;;;;;;;;;;;5142919;27;19923;-73
2021/11/26 16:06:59;;;;;;;;;;;;;;;;;;5141334;27;20237;-73
2021/11/26 16:09:25;;;;;;;;;;;;;;;;;;5123901;27;19970;-73
2021/11/26 16:11:54;;;;;;;;;;;;;;;;;;5125777;27;19907;-73
2021/11/26 16:14:20;;;;;;;;;;;;;;;;;;5123538;27;19922;-73
2021/11/26 16:16:48;;;;;;;;;;;;;;;;;;5140185;27;19933;-73
2021/11/26 16:19:13;;;;;;;;;;;;;;;;;;5141072;27;19975;-73
2021/11/26 16:21:40;;;;;;;;;;;;;;;;;;5143613;27;19921;-72
2021/11/26 16:24:06;;;;;;;;;;;;;;;;;;5142121;27;20028;-72
2021/11/26 16:26:32;;;;;;;;;;;;;;;;;;5142910;27;19934;-72